TimeEST,TemperatureF,Dew PointF,Humidity,Sea Level PressureIn,VisibilityMPH,Wind Direction,Wind SpeedMPH,Gust SpeedMPH,PrecipitationIn,Events,Conditions,WindDirDegrees,DateUTC
12:44 AM,50.0,48.2,94,30.03,3.0,Calm,Calm,-,N/A,,Overcast,0,2012-12-08 05:44:00
12:54 AM,50.0,48.9,96,30.04,3.0,Calm,Calm,-,N/A,,Overcast,0,2012-12-08 05:54:00
1:54 AM,50.0,48.9,96,30.02,4.0,Calm,Calm,-,N/A,,Overcast,0,2012-12-08 06:54:00
2:54 AM,50.0,48.9,96,30.02,4.0,Calm,Calm,-,N/A,,Overcast,0,2012-12-08 07:54:00
3:54 AM,50.0,48.0,93,30.00,5.0,Calm,Calm,-,N/A,,Overcast,0,2012-12-08 08:54:00
4:54 AM,48.9,48.0,97,30.01,4.0,Calm,Calm,-,N/A,,Overcast,0,2012-12-08 09:54:00
6:30 AM,48.2,46.4,93,30.02,3.0,Calm,Calm,-,N/A,,Scattered Clouds,0,2012-12-08 11:30:00
6:50 AM,46.4,46.4,100,30.02,2.0,Calm,Calm,-,N/A,,Partly Cloudy,0,2012-12-08 11:50:00
6:54 AM,46.0,46.0,100,30.03,2.0,Calm,Calm,-,N/A,,Partly Cloudy,0,2012-12-08 11:54:00
7:07 AM,46.4,46.4,100,30.03,2.0,Calm,Calm,-,N/A,,Mostly Cloudy,0,2012-12-08 12:07:00
7:37 AM,48.2,46.4,93,30.03,1.0,Calm,Calm,-,N/A,,Overcast,0,2012-12-08 12:37:00
7:44 AM,48.2,46.4,93,30.03,0.5,Calm,Calm,-,N/A,Fog,Fog,0,2012-12-08 12:44:00
7:54 AM,48.0,46.9,96,30.04,0.5,Calm,Calm,-,N/A,Fog,Fog,0,2012-12-08 12:54:00
8:23 AM,48.2,46.4,93,30.04,1.2,SSW,3.5,-,N/A,,Overcast,210,2012-12-08 13:23:00
8:54 AM,48.9,48.0,97,30.04,2.0,SSW,3.5,-,N/A,,Overcast,200,2012-12-08 13:54:00
9:05 AM,48.2,48.2,100,30.04,3.0,Calm,Calm,-,N/A,,Overcast,0,2012-12-08 14:05:00
9:27 AM,50.0,48.2,94,30.05,5.0,Variable,3.5,-,N/A,,Scattered Clouds,0,2012-12-08 14:27:00
9:54 AM,53.1,48.9,86,30.06,7.0,SW,4.6,-,N/A,,Clear,230,2012-12-08 14:54:00
10:54 AM,57.0,48.9,74,30.05,9.0,SSW,8.1,-,N/A,,Clear,210,2012-12-08 15:54:00
11:54 AM,61.0,50.0,67,30.02,10.0,Calm,Calm,-,N/A,,Clear,0,2012-12-08 16:54:00
12:54 PM,64.0,51.1,63,30.00,10.0,Variable,4.6,-,N/A,,Clear,0,2012-12-08 17:54:00
1:54 PM,66.9,52.0,59,29.98,10.0,WSW,5.8,-,N/A,,Clear,250,2012-12-08 18:54:00
2:54 PM,69.1,53.1,57,29.98,10.0,SW,8.1,-,N/A,,Clear,220,2012-12-08 19:54:00
3:54 PM,69.1,53.1,57,29.98,10.0,South,5.8,-,N/A,,Overcast,190,2012-12-08 20:54:00
4:54 PM,66.9,53.1,61,29.99,10.0,SSW,4.6,-,N/A,,Mostly Cloudy,200,2012-12-08 21:54:00
5:54 PM,64.9,54.0,68,30.00,10.0,South,11.5,-,N/A,,Overcast,180,2012-12-08 22:54:00
6:54 PM,63.0,53.1,70,30.02,10.0,SSW,6.9,-,N/A,,Scattered Clouds,200,2012-12-08 23:54:00
7:54 PM,61.0,53.1,75,30.02,10.0,SSW,5.8,-,N/A,,Partly Cloudy,210,2012-12-09 00:54:00
8:54 PM,59.0,53.1,81,30.04,10.0,Calm,Calm,-,N/A,,Clear,0,2012-12-09 01:54:00
9:54 PM,55.9,52.0,87,30.05,10.0,Calm,Calm,-,N/A,,Clear,0,2012-12-09 02:54:00
10:54 PM,53.1,51.1,93,30.06,10.0,Calm,Calm,-,N/A,,Mostly Cloudy,0,2012-12-09 03:54:00
11:54 PM,54.0,51.1,90,30.06,10.0,Calm,Calm,-,N/A,,Mostly Cloudy,0,2012-12-09 04:54:00